Cloquet, MN (55720)

8:59 PM CDT on September 28, 2016 (GMT -0500)
Cloquet, MN | | Change Station

Elev 1168 ft 46.70 °N, 92.45 °W | Updated 10 seconds ago

Overcast
Overcast
54.1 °F
Feels Like 54.1 °F
N
0.0
Wind Variable Wind from South
Gusts 0.0 mph

Today
High -- | Low -- °F
--% Chance of Precip.
Yesterday
High -- | Low -- °F
Precip. -- in
Pressure 30.37 in
Visibility 10.0 miles
Clouds Overcast 3800 ft
Dew Point 50 °F
Humidity 86%
Rainfall 0.00 in
Snow Depth Not available.
7:05 AM 6:54 PM
Waning Crescent, 4% visible
METAR KCOQ 290155Z AUTO 00000KT 10SM OVC038 12/08 A3037 RMK AO2
Pressure 30.37 in
Visibility 10.0 miles
Clouds Overcast 3800 ft
Dew Point 50 °F
Humidity 86%
Rainfall 0.00 in
Snow Depth Not available.
7:05 AM 6:54 PM
Waning Crescent, 4% visible
METAR KCOQ 290155Z AUTO 00000KT 10SM OVC038 12/08 A3037 RMK AO2

10-Day Weather Forecast

Almanac

Astronomy

Sep. 28, 2016 Rise Set
Actual Time
Civil Twilight
Nautical Twilight
Astronomical Twilight
Moon
Length of Visible Light
Length of Day
Tomorrow will be .
, % of the Moon is Illuminated

Today's Extremes

State Highs State Lows

Community

WunderPhotos

Upload Photos

1,942,396 photos uploaded!

WunderBlog® & News

Nearby

Air Quality

  Air Quality AQ Index Pollutant
Not available.

Snow Depth

Station Depth Elevation

Earthquake Activity

City Distance Mag. Time & Date
Minimum magnitude displayed is 2.5.

Coastal Water Temperatures

Place Temperature

Stations

Nearby Weather Stations

Station Location Temp. Windchill Dew Point Humidity Wind Precip. Elev Updated Type
                   

Watches & Warnings

There are currently no watches in effect.